createdAt,value
2022-12-25T00:55:41.132Z,25.00
2022-12-25T00:56:42.098Z,25.00
2022-12-25T00:57:42.092Z,25.00
2022-12-25T04:21:40.310Z,37.20
2022-12-25T04:40:40.131Z,39.59
2022-12-25T04:52:40.041Z,36.76
2022-12-25T04:53:40.017Z,41.16
2022-12-25T04:54:40.031Z,37.15
2022-12-25T04:55:40.021Z,39.45
2022-12-25T04:56:45.359Z,38.90
2022-12-25T04:57:39.983Z,39.11
2022-12-25T04:58:39.968Z,39.34
2022-12-25T04:59:39.974Z,39.33
2022-12-25T05:00:39.951Z,39.03
2022-12-25T05:01:40.047Z,38.01
2022-12-25T05:02:40.187Z,40.68
2022-12-25T05:03:40.194Z,40.62
2022-12-25T05:04:39.919Z,38.66
2022-12-25T05:05:39.921Z,38.77
2022-12-25T05:06:39.899Z,35.08
2022-12-25T05:07:39.895Z,36.39
2022-12-25T05:08:39.917Z,39.55
2022-12-25T05:09:39.889Z,38.45
2022-12-25T05:10:39.872Z,34.36
2022-12-25T05:11:39.883Z,35.76
2022-12-25T05:12:39.851Z,37.27
2022-12-25T05:13:39.839Z,39.41
2022-12-25T05:14:39.824Z,40.14
2022-12-25T05:15:39.943Z,38.23
2022-12-25T05:16:39.810Z,36.43
2022-12-25T05:17:39.802Z,39.11
2022-12-25T05:18:39.795Z,36.10
2022-12-25T05:19:39.786Z,37.28
2022-12-25T05:20:40.530Z,37.00
2022-12-25T05:21:39.772Z,38.15
2022-12-25T05:22:39.759Z,38.73
2022-12-25T05:23:39.748Z,38.38
2022-12-25T05:24:39.742Z,39.46
2022-12-25T05:25:39.765Z,37.45
2022-12-25T05:26:39.727Z,38.32
2022-12-25T05:27:39.739Z,35.55
2022-12-25T05:28:39.722Z,39.27
2022-12-25T05:29:39.735Z,37.36
2022-12-25T05:31:39.725Z,40.39
2022-12-25T05:32:39.670Z,38.61
2022-12-25T05:33:39.662Z,39.19
2022-12-25T17:16:33.661Z,29.16
2022-12-25T22:39:30.610Z,28.33
2022-12-25T23:34:30.116Z,29.69
2022-12-25T23:36:30.098Z,27.88
2022-12-25T23:37:31.055Z,30.90
2022-12-25T23:38:30.080Z,29.09
2022-12-25T23:40:30.066Z,29.88
2022-12-25T23:41:30.052Z,29.05
2022-12-25T23:42:30.046Z,29.86
2022-12-25T23:43:30.040Z,30.36
2022-12-25T23:44:30.073Z,30.37
2022-12-25T23:45:30.024Z,29.77
2022-12-25T23:46:30.086Z,28.85
2022-12-25T23:47:30.000Z,30.66
2022-12-25T23:48:30.000Z,28.14
2022-12-25T23:49:29.983Z,29.46
2022-12-25T23:50:29.971Z,29.82
2022-12-25T23:51:29.990Z,30.77
2022-12-25T23:52:29.954Z,31.17
2022-12-25T23:53:29.954Z,28.62
2022-12-25T23:59:29.893Z,31.22
